Time;durP1;ratioP1;P1;durP2;ratioP2;P2;SDS_P1;SDS_P2;PMS_P1;PMS_P2;Temp;Humidity;BMP_temperature;BMP_pressure;BME280_temperature;BME280_humidity;BME280_pressure;Samples;Min_cycle;Max_cycle;Signal;HPM_P1;HPM_P2
2021/03/07 00:00:49;;;;;;;;;;;;;;;-4.69;66.74;100664.98;1682205;85;20171;-71
2021/03/07 00:03:18;;;;;;;;;;;;;;;-4.69;66.90;100654.83;1682289;85;20144;-71
2021/03/07 00:05:46;;;;;;;;;;;;;;;-4.69;66.92;100647.20;1691113;84;21220;-71
2021/03/07 00:08:13;;;;;;;;;;;;;;;-4.69;66.95;100639.58;1701118;84;20142;-71
2021/03/07 00:10:43;;;;;;;;;;;;;;;-4.68;67.10;100636.21;1714083;83;20491;-71
2021/03/07 00:13:12;;;;;;;;;;;;;;;-4.67;67.26;100626.91;1713997;83;20630;-71
2021/03/07 00:15:40;;;;;;;;;;;;;;;-4.67;67.59;100631.98;1714092;83;20145;-71
2021/03/07 00:18:09;;;;;;;;;;;;;;;-4.63;67.65;100628.24;1714188;83;22237;-71
2021/03/07 00:20:41;;;;;;;;;;;;;;;-4.61;67.56;100622.77;1714083;83;20161;-72
2021/03/07 00:23:09;;;;;;;;;;;;;;;-4.58;67.72;100624.50;1714041;83;20208;-71
2021/03/07 00:25:37;;;;;;;;;;;;;;;-4.55;67.85;100610.58;1714161;83;20481;-71
2021/03/07 00:28:05;;;;;;;;;;;;;;;-4.54;67.70;100605.52;1714130;83;20216;-71
2021/03/07 00:30:33;;;;;;;;;;;;;;;-4.54;67.69;100599.16;1714060;83;21390;-71
2021/03/07 00:33:01;;;;;;;;;;;;;;;-4.53;68.00;100593.25;1714033;83;20137;-72
2021/03/07 00:35:30;;;;;;;;;;;;;;;-4.51;68.16;100590.73;1714066;83;20121;-71
2021/03/07 00:38:00;;;;;;;;;;;;;;;-4.48;68.15;100583.14;1689416;83;20323;-71
2021/03/07 00:40:30;;;;;;;;;;;;;;;-4.47;68.25;100578.50;1714106;83;20177;-71
2021/03/07 00:42:59;;;;;;;;;;;;;;;-4.45;68.33;100582.77;1690180;83;21457;-72
2021/03/07 00:45:26;;;;;;;;;;;;;;;-4.43;68.38;100570.08;1713997;83;20137;-72
2021/03/07 00:47:54;;;;;;;;;;;;;;;-4.42;68.75;100567.98;1714175;83;20399;-72
2021/03/07 00:50:24;;;;;;;;;;;;;;;-4.39;68.86;100557.82;1714071;83;20487;-72
2021/03/07 00:52:54;;;;;;;;;;;;;;;-4.35;68.97;100559.57;1714069;83;20165;-72
2021/03/07 00:55:23;;;;;;;;;;;;;;;-4.30;69.16;100555.81;1714070;83;21380;-72
2021/03/07 00:57:52;;;;;;;;;;;;;;;-4.25;69.35;100541.47;1714005;83;20712;-71
2021/03/07 01:00:22;;;;;;;;;;;;;;;-4.22;69.08;100544.91;1690017;83;20168;-71
2021/03/07 01:02:51;;;;;;;;;;;;;;;-4.21;68.95;100537.72;1714008;83;20216;-72
2021/03/07 01:05:20;;;;;;;;;;;;;;;-4.19;68.89;100528.42;1713252;83;20197;-72
2021/03/07 01:07:49;;;;;;;;;;;;;;;-4.18;69.38;100524.19;1667247;83;22507;-71
2021/03/07 01:10:21;;;;;;;;;;;;;;;-4.15;69.39;100522.53;1716282;83;20117;-71
2021/03/07 01:12:49;;;;;;;;;;;;;;;-4.11;69.37;100514.52;1716479;83;20743;-71
2021/03/07 01:15:20;;;;;;;;;;;;;;;-4.09;69.46;100508.62;1716386;83;20141;-70
2021/03/07 01:17:53;;;;;;;;;;;;;;;-4.06;69.44;100509.07;1716486;82;20184;-71
2021/03/07 01:20:21;;;;;;;;;;;;;;;-4.02;69.28;100503.59;1716530;83;21330;-71
2021/03/07 01:22:51;;;;;;;;;;;;;;;-3.97;69.30;100499.38;1716227;82;20499;-72
2021/03/07 01:25:21;;;;;;;;;;;;;;;-3.93;69.04;100496.03;1716464;83;20137;-72
2021/03/07 01:27:49;;;;;;;;;;;;;;;-3.90;69.02;100496.06;1716486;83;20141;-72
2021/03/07 01:30:18;;;;;;;;;;;;;;;-3.89;68.82;100496.50;1716443;83;20470;-71
2021/03/07 01:32:46;;;;;;;;;;;;;;;-3.88;68.69;100495.25;1716533;83;21202;-71
2021/03/07 01:35:15;;;;;;;;;;;;;;;-3.86;68.67;100495.27;1716404;83;20121;-71
2021/03/07 01:37:43;;;;;;;;;;;;;;;-3.83;68.76;100480.87;1716509;83;20141;-72
2021/03/07 01:40:14;;;;;;;;;;;;;;;-3.80;68.63;100485.14;1716479;83;20157;-72
2021/03/07 01:42:43;;;;;;;;;;;;;;;-3.77;68.78;100475.85;1716499;83;20140;-72
2021/03/07 01:45:13;;;;;;;;;;;;;;;-3.75;68.55;100469.50;1690765;83;20545;-71
2021/03/07 01:47:44;;;;;;;;;;;;;;;-3.73;68.62;100466.55;1716512;83;20449;-71
2021/03/07 01:50:14;;;;;;;;;;;;;;;-3.72;68.38;100465.72;1716510;83;20157;-71
2021/03/07 01:52:42;;;;;;;;;;;;;;;-3.72;68.40;100462.75;1716448;83;20133;-72
2021/03/07 01:55:10;;;;;;;;;;;;;;;-3.72;68.59;100461.48;1716457;83;20192;-72
2021/03/07 01:57:40;;;;;;;;;;;;;;;-3.71;68.55;100456.82;1716457;83;21256;-72
2021/03/07 02:00:09;;;;;;;;;;;;;;;-3.69;68.69;100453.02;1690423;83;20121;-72
2021/03/07 02:02:42;;;;;;;;;;;;;;;-3.68;68.75;100453.45;1716416;83;20148;-72
2021/03/07 02:05:15;;;;;;;;;;;;;;;-3.66;68.78;100446.69;1690696;83;20836;-73
2021/03/07 02:07:45;;;;;;;;;;;;;;;-3.62;68.67;100439.93;1711129;83;20141;-72
2021/03/07 02:10:16;;;;;;;;;;;;;;;-3.61;68.63;100439.94;1688242;84;21209;-72
2021/03/07 02:12:47;;;;;;;;;;;;;;;-3.60;68.76;100430.61;1710549;84;20138;-72
2021/03/07 02:15:17;;;;;;;;;;;;;;;-3.57;68.96;100428.91;1682374;84;20147;-72
2021/03/07 02:17:46;;;;;;;;;;;;;;;-3.52;69.07;100418.34;1682403;85;20163;-72
2021/03/07 02:20:18;;;;;;;;;;;;;;;-3.46;68.96;100405.66;1682327;85;20143;-72
2021/03/07 02:23:05;;;;;;;;;;;;;;;-3.41;68.65;100400.61;1710618;84;21221;-71
2021/03/07 02:25:35;;;;;;;;;;;;;;;-3.38;68.78;100395.53;1710198;83;20145;-72
2021/03/07 02:28:06;;;;;;;;;;;;;;;-3.36;68.66;100392.16;1710610;84;20467;-71
2021/03/07 02:30:34;;;;;;;;;;;;;;;-3.33;68.60;100386.66;1682383;84;20147;-71
2021/03/07 02:33:20;;;;;;;;;;;;;;;-3.33;68.60;100378.59;1682381;84;20172;-72
2021/03/07 02:35:52;;;;;;;;;;;;;;;-3.30;68.74;100372.67;1659250;85;22122;-72
2021/03/07 02:38:23;;;;;;;;;;;;;;;-3.29;68.75;100370.55;1682307;85;20171;-72
2021/03/07 02:40:55;;;;;;;;;;;;;;;-3.26;69.01;100357.84;1710714;84;20416;-72
2021/03/07 02:43:23;;;;;;;;;;;;;;;-3.21;69.02;100357.44;1710531;84;20178;-72
2021/03/07 02:45:51;;;;;;;;;;;;;;;-3.19;69.09;100345.11;1659255;85;20247;-72
2021/03/07 02:48:22;;;;;;;;;;;;;;;-3.16;69.08;100346.83;1659278;85;21224;-72
2021/03/07 02:50:50;;;;;;;;;;;;;;;-3.13;69.38;100340.47;1682282;85;20219;-72
2021/03/07 02:53:23;;;;;;;;;;;;;;;-3.10;69.50;100331.16;1682452;85;20140;-72
2021/03/07 02:55:54;;;;;;;;;;;;;;;-3.08;69.25;100328.19;1637420;85;20215;-71
2021/03/07 02:58:23;;;;;;;;;;;;;;;-3.06;69.14;100323.09;1682366;85;20160;-72
2021/03/07 03:00:54;;;;;;;;;;;;;;;-3.06;69.21;100320.55;1658657;85;21738;-72
2021/03/07 03:03:26;;;;;;;;;;;;;;;-3.08;69.48;100314.17;1682297;85;20164;-73
2021/03/07 03:05:57;;;;;;;;;;;;;;;-3.06;69.72;100309.94;1682353;84;20426;-72
2021/03/07 03:08:27;;;;;;;;;;;;;;;-3.04;69.72;100303.16;1684851;85;20139;-72
2021/03/07 03:10:57;;;;;;;;;;;;;;;-2.99;69.69;100309.97;1695480;84;20142;-72
2021/03/07 03:13:27;;;;;;;;;;;;;;;-3.00;69.88;100300.20;1694699;83;21789;-73
2021/03/07 03:15:55;;;;;;;6.50;5.33;;;;;;;-2.98;69.72;100299.78;1693911;84;20142;-72
2021/03/07 03:18:28;;;;;;;6.78;5.50;;;;;;;-2.99;69.80;100290.44;1682825;84;20955;-72
2021/03/07 03:21:03;;;;;;;7.35;5.58;;;;;;;-2.99;69.99;100289.59;1666977;84;20955;-72
2021/03/07 03:23:32;;;;;;;;;;;;;;;-2.98;70.10;100288.31;1640101;85;21056;-72
2021/03/07 03:26:01;;;;;;;10.53;5.83;;;;;;;-2.96;70.25;100274.31;1682238;85;21241;-72
2021/03/07 03:28:32;;;;;;;7.90;5.70;;;;;;;-2.95;70.30;100273.04;1689537;84;21049;-72
2021/03/07 03:31:02;;;;;;;8.68;6.40;;;;;;;-2.95;70.35;100258.18;1679666;85;21636;-72
2021/03/07 03:33:33;;;;;;;8.23;5.55;;;;;;;-2.94;70.52;100256.91;1682473;85;21020;-72
2021/03/07 03:36:02;;;;;;;11.85;7.15;;;;;;;-2.95;70.59;100247.56;1653238;86;21032;-72
2021/03/07 03:38:52;;;;;;;9.80;6.22;;;;;;;-2.92;70.71;100246.72;1682473;85;21273;-72
2021/03/07 03:41:22;;;;;;;13.05;7.03;;;;;;;-2.90;70.61;100248.85;1682423;84;21053;-71
2021/03/07 03:43:55;;;;;;;10.63;6.83;;;;;;;-2.89;70.78;100242.91;1682179;84;21005;-71
2021/03/07 03:46:24;;;;;;;10.75;6.37;;;;;;;-2.88;70.71;100244.61;1682289;85;21590;-73
2021/03/07 03:48:56;;;;;;;10.72;6.85;;;;;;;-2.88;70.98;100235.27;1682576;84;21609;-72
2021/03/07 03:51:26;;;;;;;10.93;7.30;;;;;;;-2.83;70.95;100235.28;1657175;85;21180;-72
2021/03/07 03:53:54;;;;;;;11.33;7.55;;;;;;;-2.82;71.01;100227.64;1682380;84;21036;-72
2021/03/07 03:56:25;;;;;;;10.95;7.12;;;;;;;-2.80;71.03;100223.81;1682217;85;20956;-72
2021/03/07 03:58:54;;;;;;;9.13;6.58;;;;;;;-2.78;71.17;100211.47;1682315;84;37899;-72
2021/03/07 04:01:23;;;;;;;13.32;7.17;;;;;;;-2.75;71.34;100204.25;1682222;85;21019;-72
2021/03/07 04:03:53;;;;;;;7.50;6.22;;;;;;;-2.72;71.12;100194.06;1682459;85;21272;-72
2021/03/07 04:06:25;;;;;;;10.23;6.20;;;;;;;-2.72;71.37;100189.81;1656422;83;21035;-71
2021/03/07 04:08:54;;;;;;;8.88;5.95;;;;;;;-2.66;71.49;100189.39;1711125;83;21593;-71
2021/03/07 04:11:22;;;;;;;11.22;6.40;;;;;;;-2.65;71.27;100180.47;1683271;83;20979;-72
2021/03/07 04:13:52;;;;;;;7.25;5.90;;;;;;;-2.64;71.30;100182.17;1683087;83;21059;-72
2021/03/07 04:16:21;;;;;;;7.67;6.00;;;;;;;-2.63;71.28;100168.58;1711091;83;21319;-71
2021/03/07 04:18:52;;;;;;;8.88;6.12;;;;;;;-2.59;71.30;100166.88;1710946;84;21040;-71
2021/03/07 04:21:22;;;;;;;9.60;6.45;;;;;;;-2.58;71.12;100166.03;1710991;83;20981;-72
2021/03/07 04:23:54;;;;;;;9.20;6.37;;;;;;;-2.57;71.37;100148.61;1684039;84;21047;-73
2021/03/07 04:26:23;;;;;;;12.95;8.63;;;;;;;-2.52;71.40;100155.41;1710997;84;21044;-71
2021/03/07 04:28:52;;;;;;;16.65;9.90;;;;;;;-2.49;71.35;100144.35;1711007;84;21589;-72
2021/03/07 04:31:23;;;;;;;16.75;10.70;;;;;;;-2.47;71.21;100142.66;1710894;84;21020;-71
2021/03/07 04:34:10;;;;;;;19.42;11.60;;;;;;;-2.44;71.17;100137.55;1726523;81;20953;-72
2021/03/07 04:36:43;;;;;;;16.32;11.03;;;;;;;-2.41;71.14;100126.08;1675991;84;21028;-71
2021/03/07 04:39:14;;;;;;;15.03;9.55;;;;;;;-2.40;71.04;100132.41;1677676;84;20988;-72
2021/03/07 04:44:24;;;;;;;15.32;9.90;;;;;;;-2.33;71.04;100119.22;1703258;84;21462;-71
2021/03/07 04:46:53;;;;;;;14.43;9.40;;;;;;;-2.28;70.97;100111.14;1677776;84;21040;-71
2021/03/07 04:49:24;;;;;;;11.18;8.68;;;;;;;-2.26;70.86;100111.98;1703684;84;21044;-72
2021/03/07 04:51:55;;;;;;;12.18;8.28;;;;;;;-2.22;70.63;100112.40;1678228;84;21035;-71
2021/03/07 04:54:36;;;;;;;12.95;9.08;;;;;;;-2.22;70.63;100102.20;1703802;84;21035;-73
2021/03/07 04:57:07;;;;;;;9.55;8.30;;;;;;;-2.19;70.52;100094.96;1703752;84;21036;-71
2021/03/07 05:00:09;;;;;;;12.07;7.55;;;;;;;-2.16;70.79;100089.86;1703789;84;21155;-70
2021/03/07 05:03:03;;;;;;;11.95;6.85;;;;;;;-2.10;70.71;100081.75;1703622;84;20965;-70
2021/03/07 05:05:51;;;;;;;7.08;6.37;;;;;;;-2.03;70.34;100074.50;1703824;84;21055;-71
2021/03/07 05:08:42;;;;;;;9.80;7.30;;;;;;;-1.98;70.28;100068.06;1694954;84;21376;-69
2021/03/07 05:11:21;;;;;;;9.83;6.40;;;;;;;-1.95;70.30;100060.40;1672854;84;21076;-71
2021/03/07 05:14:10;;;;;;;11.80;7.17;;;;;;;-1.86;70.71;100053.98;1692887;84;21527;-71
2021/03/07 05:16:39;;;;;;;10.43;6.78;;;;;;;-1.72;70.04;100054.75;1739053;82;20937;-71
2021/03/07 05:19:32;;;;;;;9.05;6.83;;;;;;;-1.61;70.25;100047.03;1737494;82;21628;-70
2021/03/07 05:22:11;;;;;;;11.50;6.80;;;;;;;-1.46;70.03;100032.02;1737712;82;22062;-70
2021/03/07 05:24:41;;;;;;;8.45;6.28;;;;;;;-1.29;69.63;100030.19;1679637;85;21055;-71
2021/03/07 05:27:11;;;;;;;11.63;7.58;;;;;;;-1.17;68.57;100023.67;1679277;85;21640;-70
2021/03/07 05:29:53;;;;;;;10.03;7.62;;;;;;;-1.11;67.98;100023.63;1679064;85;20980;-70
2021/03/07 05:32:43;;;;;;;13.65;10.23;;;;;;;-1.07;67.55;100019.34;1679881;85;21063;-71
2021/03/07 05:35:16;;;;;;;14.17;8.97;;;;;;;-1.07;67.37;100009.96;1680105;85;21221;-70
2021/03/07 05:38:10;;;;;;;11.28;7.97;;;;;;;-1.04;67.24;100009.94;1656167;85;21550;-72
2021/03/07 05:40:59;;;;;;;9.98;7.05;;;;;;;-0.99;67.11;100008.61;1679768;84;21375;-72
2021/03/07 05:43:55;;;;;;;11.12;7.97;;;;;;;-0.96;66.84;99999.64;1656816;85;21407;-72
2021/03/07 05:46:49;;;;;;;15.40;10.58;;;;;;;-0.91;66.82;99992.78;1679880;84;20984;-71
2021/03/07 05:49:38;;;;;;;17.37;8.83;;;;;;;-0.82;66.52;99987.58;1688032;84;21047;-72
2021/03/07 05:52:18;;;;;;;13.60;8.55;;;;;;;-0.76;66.31;99973.85;1679061;85;21035;-72
2021/03/07 05:54:53;;;;;;;14.28;9.13;;;;;;;-0.67;66.81;99980.14;1679958;84;20969;-72
2021/03/07 05:57:45;;;;;;;15.18;10.05;;;;;;;-0.55;66.21;99977.45;1679787;84;21522;-72
2021/03/07 06:00:27;;;;;;;16.02;9.35;;;;;;;-0.46;65.40;99965.84;1666540;84;20992;-71
2021/03/07 06:03:18;;;;;;;17.98;8.75;;;;;;;-0.39;65.44;99967.42;1675255;85;21589;-71
2021/03/07 06:06:00;;;;;;;10.90;8.35;;;;;;;-0.32;65.00;99966.92;1679679;85;20992;-72
2021/03/07 06:08:37;;;;;;;18.12;10.93;;;;;;;-0.25;65.01;99951.91;1689042;83;21578;-72
2021/03/07 06:11:34;;;;;;;12.40;9.45;;;;;;;-0.18;64.57;99945.84;1712977;83;21650;-72
2021/03/07 06:14:29;;;;;;;13.50;9.33;;;;;;;-0.12;64.50;99945.75;1724780;82;21530;-72
2021/03/07 06:17:16;;;;;;;18.25;10.95;;;;;;;-0.04;64.36;99953.33;1717694;83;21234;-72
2021/03/07 06:20:07;;;;;;;11.88;8.38;;;;;;;0.04;64.25;99956.59;1716177;83;20969;-72
2021/03/07 06:23:02;;;;;;;12.03;7.85;;;;;;;0.13;64.14;99950.50;1691299;84;21023;-72
2021/03/07 06:25:48;;;;;;;12.65;8.63;;;;;;;0.21;63.86;99949.95;1678496;84;21057;-72
2021/03/07 06:28:26;;;;;;;15.95;9.10;;;;;;;0.25;63.79;99939.64;1702670;83;20974;-72
2021/03/07 06:31:30;;;;;;;9.55;7.40;;;;;;;0.31;63.56;99939.98;1700397;84;21036;-73
2021/03/07 06:34:08;;;;;;;11.70;7.72;;;;;;;0.36;63.73;99929.67;1699393;84;20964;-72
2021/03/07 06:36:44;;;;;;;11.22;8.58;;;;;;;0.47;63.55;99928.59;1702893;84;21012;-72
2021/03/07 06:39:34;;;;;;;10.15;7.90;;;;;;;0.55;63.61;99928.47;1700690;84;21108;-72
2021/03/07 06:42:12;;;;;;;11.22;8.63;;;;;;;0.65;63.27;99928.30;1700670;84;20998;-72
2021/03/07 06:45:01;;;;;;;11.75;7.92;;;;;;;0.75;63.22;99924.29;1701771;84;22116;-71
2021/03/07 06:47:31;;;;;;;14.50;9.10;;;;;;;0.87;62.89;99916.36;1702527;84;21084;-72
2021/03/07 06:50:13;;;;;;;13.90;7.92;;;;;;;0.99;62.56;99911.84;1676944;84;21041;-72
2021/03/07 06:52:49;;;;;;;9.85;7.00;;;;;;;1.12;62.36;99902.20;1702822;84;20998;-72
2021/03/07 06:55:25;;;;;;;10.32;7.75;;;;;;;1.26;61.72;99895.50;1677802;84;21056;-73
2021/03/07 06:57:59;;;;;;;10.15;7.58;;;;;;;1.33;61.31;99888.93;1677315;84;21386;-71
2021/03/07 07:00:39;;;;;;;9.30;7.83;;;;;;;1.40;61.42;99893.50;1675371;84;21645;-71
2021/03/07 07:03:14;;;;;;;12.33;7.25;;;;;;;1.43;61.11;99884.45;1699455;84;20919;-71
2021/03/07 07:05:47;;;;;;;9.55;7.45;;;;;;;1.44;60.76;99877.16;1702732;84;21001;-71
2021/03/07 07:08:17;;;;;;;12.98;8.63;;;;;;;1.46;60.82;99874.56;1674032;84;20924;-73
2021/03/07 07:10:56;;;;;;;7.65;6.28;;;;;;;1.45;60.74;99866.03;1676995;84;21221;-72
2021/03/07 07:13:27;;;;;;;12.65;6.97;;;;;;;1.47;61.16;99856.58;1676239;84;20973;-70
2021/03/07 07:16:07;;;;;;;13.18;8.73;;;;;;;1.54;60.69;99848.31;1676447;84;21017;-70
2021/03/07 07:18:39;;;;;;;16.35;9.43;;;;;;;1.56;60.71;99840.98;1702127;84;21399;-72
2021/03/07 07:21:10;;;;;;;12.37;8.38;;;;;;;1.60;60.64;99835.34;1676737;84;21414;-72
2021/03/07 07:23:38;;;;;;;11.50;8.40;;;;;;;1.68;60.71;99830.85;1702178;84;21547;-70
2021/03/07 07:26:07;;;;;;;10.85;8.13;;;;;;;1.78;60.62;99840.47;1702753;84;21042;-71
2021/03/07 07:28:38;;;;;;;10.32;7.70;;;;;;;1.87;60.32;99839.81;1702479;83;21508;-72
2021/03/07 07:31:32;;;;;;;11.12;7.90;;;;;;;1.95;59.97;99835.34;1702609;84;21113;-71
2021/03/07 07:34:12;;;;;;;;;;;;;;;2.03;59.86;99839.42;1703556;84;21070;-72
2021/03/07 07:36:59;;;;;;;13.50;8.93;;;;;;;2.10;59.91;99834.11;1700612;84;20125;-71
2021/03/07 07:39:33;;;;;;;11.25;8.20;;;;;;;2.20;59.42;99836.86;1702818;84;20939;-72
2021/03/07 07:42:28;;;;;;;12.88;8.20;;;;;;;2.31;59.41;99834.02;1676492;84;21575;-72
2021/03/07 07:45:01;;;;;;;9.23;7.08;;;;;;;2.45;59.13;99833.64;1701577;84;20959;-73
2021/03/07 07:47:59;;;;;;;14.75;8.23;;;;;;;2.56;58.52;99828.63;1676886;84;21507;-74
2021/03/07 07:50:36;;;;;;;10.88;7.42;;;;;;;2.64;58.32;99830.99;1702739;84;21210;-74
2021/03/07 07:53:15;;;;;;;9.65;7.30;;;;;;;2.73;58.33;99820.91;1698896;84;21024;-73
2021/03/07 07:56:42;;;;;;;10.85;8.28;;;;;;;2.74;57.76;99816.17;1675944;84;21036;-72
2021/03/07 07:59:16;;;;;;;10.23;7.20;;;;;;;2.71;57.68;99817.53;1702251;84;26626;-72
2021/03/07 08:01:52;;;;;;;12.28;8.10;;;;;;;2.70;57.90;99823.56;1674028;84;20998;-73
2021/03/07 08:04:34;;;;;;;13.75;8.68;;;;;;;2.66;58.04;99820.23;1702273;84;22371;-73
2021/03/07 08:07:03;;;;;;;9.55;7.35;;;;;;;2.65;58.00;99817.26;1702131;84;21661;-73
2021/03/07 08:09:48;;;;;;;12.23;7.95;;;;;;;2.64;58.38;99814.28;1702424;84;21589;-72
2021/03/07 08:12:50;;;;;;;10.80;7.83;;;;;;;2.67;57.96;99813.77;1703665;84;20969;-72
2021/03/07 08:15:37;;;;;;;8.78;7.58;;;;;;;2.75;57.96;99798.13;1703742;84;21509;-72
2021/03/07 08:18:12;;;;;;;11.05;7.83;;;;;;;2.78;57.92;99792.91;1702269;84;21232;-71
2021/03/07 08:20:46;;;;;;;11.73;7.47;;;;;;;2.79;57.94;99785.59;1676942;84;21503;-70
2021/03/07 08:23:24;;;;;;;10.38;8.20;;;;;;;2.82;57.80;99775.62;1702267;84;21566;-71
2021/03/07 08:25:56;;;;;;;11.93;8.03;;;;;;;2.83;57.48;99779.89;1702262;84;20988;-71
2021/03/07 08:28:33;;;;;;;16.70;9.53;;;;;;;2.87;57.83;99769.91;1702381;84;21022;-73
2021/03/07 08:31:27;;;;;;;13.18;8.95;;;;;;;2.91;57.28;99768.50;1702355;84;21210;-70
2021/03/07 08:34:16;;;;;;;15.13;8.60;;;;;;;2.93;57.46;99761.58;1702325;84;21626;-76
2021/03/07 08:36:52;;;;;;;16.77;9.70;;;;;;;2.98;57.70;99743.00;1702305;84;20973;-69
2021/03/07 08:39:21;;;;;;;15.95;9.73;;;;;;;3.07;57.79;99748.32;1702485;84;21072;-72
2021/03/07 08:41:54;;;;;;;11.30;9.13;;;;;;;3.12;57.18;99746.90;1702308;84;20952;-72
2021/03/07 08:44:23;;;;;;;12.70;8.48;;;;;;;3.15;57.03;99745.08;1702224;84;21669;-73
2021/03/07 08:46:51;;;;;;;11.93;9.03;;;;;;;3.17;56.99;99736.88;1702241;84;21630;-70
2021/03/07 08:49:23;;;;;;;27.15;9.83;;;;;;;3.21;57.20;99740.16;1702387;84;20918;-72
2021/03/07 08:52:01;;;;;;;23.10;9.73;;;;;;;3.28;57.15;99741.66;1702252;84;20988;-72
2021/03/07 08:54:32;;;;;;;46.40;12.23;;;;;;;3.35;57.09;99730.29;1702276;84;20965;-71
2021/03/07 08:57:08;;;;;;;27.07;9.85;;;;;;;3.43;56.95;99742.48;1702171;84;22117;-73
2021/03/07 08:59:36;;;;;;;23.22;11.22;;;;;;;3.48;56.78;99727.73;1702442;84;20957;-71
2021/03/07 09:02:05;;;;;;;27.42;9.18;;;;;;;3.52;56.29;99713.88;1702218;84;21556;-70
2021/03/07 09:04:38;;;;;;;21.20;10.25;;;;;;;3.53;56.64;99717.29;1699080;84;21053;-73
2021/03/07 09:07:06;;;;;;;16.82;9.53;;;;;;;3.59;56.47;99723.09;1702618;84;21788;-67
2021/03/07 09:09:40;;;;;;;25.10;9.03;;;;;;;3.63;56.45;99729.79;1695712;84;22245;-73
2021/03/07 09:12:10;;;;;;;15.88;9.10;;;;;;;3.65;56.54;99724.59;1691510;84;21519;-64
2021/03/07 09:14:39;;;;;;;14.63;9.30;;;;;;;3.66;56.06;99719.39;1691781;84;21027;-70
2021/03/07 09:17:19;;;;;;;17.17;8.48;;;;;;;3.65;55.63;99718.16;1691752;84;21010;-65
2021/03/07 09:19:47;;;;;;;16.15;8.30;;;;;;;3.59;56.33;99708.92;1691783;84;20999;-64
2021/03/07 09:22:24;;;;;;;18.02;8.20;;;;;;;3.58;56.25;99706.41;1718675;83;22036;-65
2021/03/07 09:24:59;;;;;;;15.23;9.30;;;;;;;3.59;56.34;99706.35;1732840;82;21017;-65
2021/03/07 09:27:31;;;;;;;17.85;8.63;;;;;;;3.57;56.04;99693.98;1736370;82;21588;-72
2021/03/07 09:30:14;;;;;;;22.05;9.58;;;;;;;3.48;56.42;99692.14;1736305;82;20950;-73
2021/03/07 09:32:45;;;;;;;15.95;9.15;;;;;;;3.48;56.53;99689.13;1734839;82;21093;-73
2021/03/07 09:38:08;;;;;;;15.20;8.45;;;;;;;3.60;56.77;99674.53;1846560;77;22715;-74
2021/03/07 09:40:43;;;;;;;14.70;9.38;;;;;;;3.66;56.60;99677.35;1818474;78;21157;-74
2021/03/07 09:43:15;;;;;;;12.40;8.20;;;;;;;3.77;56.49;99675.70;1846389;77;21185;-74
2021/03/07 09:45:51;;;;;;;14.35;8.53;;;;;;;3.88;56.37;99673.17;1787528;78;21576;-72
2021/03/07 09:48:23;;;;;;;15.07;11.00;;;;;;;4.01;55.85;99668.41;1821728;78;20973;-76
2021/03/07 09:50:53;;;;;;;19.90;11.50;;;;;;;4.12;55.90;99662.88;1802874;78;21424;-72
2021/03/07 09:53:23;;;;;;;13.43;9.48;;;;;;;4.19;55.92;99665.64;1833537;78;21451;-74
2021/03/07 09:55:52;;;;;;;11.53;8.53;;;;;;;4.26;55.70;99652.48;1829939;78;22092;-73
2021/03/07 09:58:20;;;;;;;14.10;8.63;;;;;;;4.33;55.21;99642.79;1827246;78;21572;-75
2021/03/07 10:00:50;;;;;;;17.70;9.30;;;;;;;4.38;55.42;99641.34;1820953;78;21645;-70
2021/03/07 10:03:24;;;;;;;14.73;9.75;;;;;;;4.45;55.36;99641.47;1804547;78;21057;-73
2021/03/07 10:06:15;;;;;;;13.48;8.53;;;;;;;4.55;55.02;99632.50;1831524;78;20878;-71
2021/03/07 10:08:45;;;;;;;17.62;10.00;;;;;;;4.59;54.53;99631.04;1830593;78;22600;-72
2021/03/07 10:11:20;;;;;;;12.03;8.48;;;;;;;4.63;54.73;99626.61;1833210;78;20961;-76
2021/03/07 10:13:59;;;;;;;15.53;9.35;;;;;;;4.65;54.22;99625.65;1822412;78;21040;-73
2021/03/07 10:16:30;;;;;;;14.28;8.60;;;;;;;4.69;54.83;99621.22;1831379;78;21537;-77
2021/03/07 10:19:06;;;;;;;16.93;9.43;;;;;;;4.72;54.56;99628.00;1835656;78;21439;-73
2021/03/07 10:21:34;;;;;;;20.52;10.48;;;;;;;4.75;54.98;99623.56;1832363;78;22305;-74
2021/03/07 10:24:13;;;;;;;14.40;9.78;;;;;;;4.77;54.44;99622.22;1822996;78;21578;-74
2021/03/07 10:26:45;;;;;;;13.90;9.25;;;;;;;4.73;54.38;99620.20;1804129;78;21562;-70
2021/03/07 10:29:26;;;;;;;18.52;10.35;;;;;;;4.64;54.96;99617.52;1816397;78;21330;-68
2021/03/07 10:32:18;;;;;;;15.50;8.88;;;;;;;4.64;55.69;99602.05;1819495;78;21575;-73
2021/03/07 10:34:52;;;;;;;17.75;10.05;;;;;;;4.66;55.41;99613.15;1823334;77;21406;-74
2021/03/07 10:37:42;;;;;;;15.32;9.80;;;;;;;4.66;55.23;99597.67;1836286;77;21557;-72
2021/03/07 10:40:12;;;;;;;14.00;10.03;;;;;;;4.65;55.49;99596.45;1849979;77;20989;-71
2021/03/07 10:42:44;;;;;;;16.73;9.38;;;;;;;4.65;55.51;99591.28;1851518;77;20974;-70
2021/03/07 10:45:21;;;;;;;15.32;10.90;;;;;;;4.65;55.27;99588.26;1846839;77;20939;-70
2021/03/07 10:48:05;;;;;;;17.12;9.95;;;;;;;4.65;55.13;99587.42;1829815;77;21279;-70
2021/03/07 10:50:35;;;;;;;18.82;10.25;;;;;;;4.61;55.36;99572.96;1795767;78;20949;-70
2021/03/07 10:53:04;;;;;;;13.85;9.23;;;;;;;4.63;56.09;99568.14;1833171;77;20978;-70
2021/03/07 10:55:33;;;;;;;20.65;9.75;;;;;;;4.68;55.50;99562.35;1834195;77;20974;-70
2021/03/07 10:58:01;;;;;;;14.03;9.85;;;;;;;4.71;55.79;99561.39;1831566;78;20998;-70
2021/03/07 11:00:30;;;;;;;15.55;9.20;;;;;;;4.72;55.70;99550.63;1823038;78;22031;-69
2021/03/07 11:02:58;;;;;;;16.52;10.15;;;;;;;4.73;55.54;99554.44;1830230;78;21555;-67
2021/03/07 11:05:28;;;;;;;12.82;10.08;;;;;;;4.71;55.76;99542.50;1819001;78;21336;-73
2021/03/07 11:07:56;;;;;;;15.45;9.05;;;;;;;4.68;55.67;99549.45;1824770;78;20927;-72
2021/03/07 11:10:25;;;;;;;12.85;9.63;;;;;;;4.66;56.09;99539.66;1824208;78;20991;-72
2021/03/07 11:12:54;;;;;;;14.87;10.53;;;;;;;4.63;55.47;99537.64;1811746;78;22313;-70
2021/03/07 11:15:23;;;;;;;15.00;10.72;;;;;;;4.60;55.94;99534.73;1818609;78;21559;-69
2021/03/07 11:17:51;;;;;;;13.68;9.53;;;;;;;4.65;55.88;99531.98;1850932;77;21563;-70
2021/03/07 11:20:20;;;;;;;13.18;10.08;;;;;;;4.66;56.03;99533.20;1848469;77;21551;-69
2021/03/07 11:22:48;;;;;;;13.00;9.45;;;;;;;4.69;56.23;99523.22;1851066;77;21499;-64
2021/03/07 11:25:17;;;;;;;15.38;10.18;;;;;;;4.69;55.58;99524.06;1846915;77;22161;-70
2021/03/07 11:27:45;;;;;;;15.30;9.78;;;;;;;4.68;56.21;99517.67;1837512;77;21561;-73
2021/03/07 11:30:17;;;;;;;13.00;9.43;;;;;;;4.67;55.89;99512.96;1839625;77;21397;-69
2021/03/07 11:32:45;;;;;;;12.55;9.13;;;;;;;4.68;56.21;99509.48;1828357;77;21003;-72
2021/03/07 11:35:14;;;;;;;13.60;9.00;;;;;;;4.68;56.89;99508.19;1789012;78;21505;-65
2021/03/07 11:37:42;;;;;;;15.68;9.93;;;;;;;4.76;56.11;99505.31;1799658;79;22181;-69
2021/03/07 11:40:12;;;;;;;14.45;9.43;;;;;;;4.77;56.16;99489.39;1809185;79;21587;-70
2021/03/07 11:42:40;;;;;;;13.35;10.20;;;;;;;4.82;56.82;99497.74;1805445;79;21014;-67
2021/03/07 11:45:11;;;;;;;14.18;9.13;;;;;;;4.91;55.87;99489.18;1808734;79;21028;-72
2021/03/07 11:47:39;;;;;;;13.32;9.90;;;;;;;4.95;56.04;99493.77;1809652;79;21131;-64
2021/03/07 11:50:09;;;;;;;15.08;9.98;;;;;;;4.95;56.21;99481.70;1815704;78;22380;-63
2021/03/07 11:52:38;;;;;;;13.32;9.00;;;;;;;4.93;55.89;99470.61;1812113;79;20975;-63
2021/03/07 11:55:08;;;;;;;15.38;10.40;;;;;;;4.91;56.24;99481.89;1808234;79;21487;-70
2021/03/07 11:57:36;;;;;;;15.05;10.50;;;;;;;4.90;56.38;99479.77;1811960;79;20927;-68
2021/03/07 12:00:09;;;;;;;14.05;10.18;;;;;;;4.93;56.46;99472.34;1816611;79;20966;-69
2021/03/07 12:02:40;;;;;;;10.45;8.80;;;;;;;4.99;56.05;99473.38;1818907;79;21198;-71
2021/03/07 12:05:11;;;;;;;11.73;9.18;;;;;;;4.97;56.41;99476.02;1819285;78;21134;-70
2021/03/07 12:07:40;;;;;;;16.32;9.95;;;;;;;4.95;55.93;99473.96;1820202;78;21061;-72
2021/03/07 12:10:10;;;;;;;10.82;8.68;;;;;;;4.88;56.05;99467.37;1820411;79;20932;-71
2021/03/07 12:12:38;;;;;;;12.05;10.03;;;;;;;4.83;56.55;99471.05;1820958;79;21394;-70
2021/03/07 12:15:09;;;;;;;15.58;10.35;;;;;;;4.77;56.25;99484.23;1821933;79;21371;-68
2021/03/07 12:17:38;;;;;;;13.98;10.10;;;;;;;4.68;56.45;99488.02;1819900;79;21424;-62
2021/03/07 12:20:09;;;;;;;16.25;10.23;;;;;;;4.58;56.82;99487.55;1812611;78;20920;-63
2021/03/07 12:22:37;;;;;;;15.48;10.93;;;;;;;4.48;56.88;99477.20;1812745;79;21032;-63
2021/03/07 12:25:08;;;;;;;15.55;11.55;;;;;;;4.40;57.22;99472.80;1818787;79;21523;-63